sensor_id;sensor_type;location;lat;lon;timestamp;pressure;altitude;pressure_sealevel;temperature;humidity
74960;BME280;63518;49.572;1.106;2023-05-07T00:01:57;99497.84;;;14.82;81.56
74960;BME280;63518;49.572;1.106;2023-05-07T00:04:23;99486.84;;;14.99;81.29
74960;BME280;63518;49.572;1.106;2023-05-07T00:06:51;99484.34;;;14.89;79.65
74960;BME280;63518;49.572;1.106;2023-05-07T00:09:17;99485.81;;;15.17;78.33
74960;BME280;63518;49.572;1.106;2023-05-07T00:11:44;99473.66;;;15.36;77.53
74960;BME280;63518;49.572;1.106;2023-05-07T00:14:11;99489.38;;;15.09;80.35
74960;BME280;63518;49.572;1.106;2023-05-07T00:16:37;99481.34;;;15.08;78.47
74960;BME280;63518;49.572;1.106;2023-05-07T00:19:04;99482.63;;;14.71;82.17
74960;BME280;63518;49.572;1.106;2023-05-07T00:21:31;99469.63;;;14.57;82.63
74960;BME280;63518;49.572;1.106;2023-05-07T00:23:58;99481.72;;;14.61;81.76
74960;BME280;63518;49.572;1.106;2023-05-07T00:26:24;99493.06;;;14.29;84.85
74960;BME280;63518;49.572;1.106;2023-05-07T00:28:51;99485.25;;;14.53;83.02
74960;BME280;63518;49.572;1.106;2023-05-07T00:31:18;99479.50;;;14.27;83.69
74960;BME280;63518;49.572;1.106;2023-05-07T00:33:45;99478.66;;;14.40;83.79
74960;BME280;63518;49.572;1.106;2023-05-07T00:36:11;99486.16;;;14.62;81.01
74960;BME280;63518;49.572;1.106;2023-05-07T00:38:38;99480.66;;;14.71;82.33
74960;BME280;63518;49.572;1.106;2023-05-07T00:41:05;99485.88;;;14.73;80.47
74960;BME280;63518;49.572;1.106;2023-05-07T00:43:32;99467.03;;;14.61;79.96
74960;BME280;63518;49.572;1.106;2023-05-07T00:45:59;99480.63;;;14.93;81.48
74960;BME280;63518;49.572;1.106;2023-05-07T00:48:27;99483.97;;;14.82;80.31
74960;BME280;63518;49.572;1.106;2023-05-07T00:50:54;99476.38;;;14.65;79.98
74960;BME280;63518;49.572;1.106;2023-05-07T00:53:21;99482.56;;;14.62;80.55
74960;BME280;63518;49.572;1.106;2023-05-07T00:55:48;99482.56;;;14.62;81.39
74960;BME280;63518;49.572;1.106;2023-05-07T00:58:15;99482.41;;;14.67;80.23
74960;BME280;63518;49.572;1.106;2023-05-07T01:00:42;99477.47;;;14.55;79.90
74960;BME280;63518;49.572;1.106;2023-05-07T01:03:09;99484.44;;;14.75;81.66
74960;BME280;63518;49.572;1.106;2023-05-07T01:05:36;99486.16;;;14.40;81.97
74960;BME280;63518;49.572;1.106;2023-05-07T01:08:04;99481.53;;;14.58;81.34
74960;BME280;63518;49.572;1.106;2023-05-07T01:10:31;99476.50;;;14.60;81.80
74960;BME280;63518;49.572;1.106;2023-05-07T01:12:58;99470.66;;;14.92;81.37
74960;BME280;63518;49.572;1.106;2023-05-07T01:15:26;99463.47;;;14.91;79.46
74960;BME280;63518;49.572;1.106;2023-05-07T01:17:53;99478.41;;;15.04;80.18
74960;BME280;63518;49.572;1.106;2023-05-07T01:20:20;99471.75;;;15.14;80.83
74960;BME280;63518;49.572;1.106;2023-05-07T01:22:47;99471.56;;;14.79;80.14
74960;BME280;63518;49.572;1.106;2023-05-07T01:25:15;99471.38;;;14.76;81.06
74960;BME280;63518;49.572;1.106;2023-05-07T01:27:42;99463.81;;;15.21;79.01
74960;BME280;63518;49.572;1.106;2023-05-07T01:30:09;99465.25;;;14.87;83.41
74960;BME280;63518;49.572;1.106;2023-05-07T01:35:05;99460.22;;;15.20;78.60
74960;BME280;63518;49.572;1.106;2023-05-07T01:37:33;99468.94;;;15.05;78.87
74960;BME280;63518;49.572;1.106;2023-05-07T01:40:01;99468.25;;;15.00;78.53
74960;BME280;63518;49.572;1.106;2023-05-07T01:42:29;99464.84;;;15.03;78.76
74960;BME280;63518;49.572;1.106;2023-05-07T01:44:56;99483.50;;;15.11;78.60
74960;BME280;63518;49.572;1.106;2023-05-07T01:47:23;99476.81;;;15.12;78.41
74960;BME280;63518;49.572;1.106;2023-05-07T01:49:50;99479.66;;;14.98;79.85
74960;BME280;63518;49.572;1.106;2023-05-07T01:52:17;99486.75;;;14.82;80.33
74960;BME280;63518;49.572;1.106;2023-05-07T01:54:43;99466.91;;;14.66;81.26
74960;BME280;63518;49.572;1.106;2023-05-07T01:57:10;99477.84;;;15.24;78.90
74960;BME280;63518;49.572;1.106;2023-05-07T01:59:37;99472.47;;;15.19;81.79
74960;BME280;63518;49.572;1.106;2023-05-07T02:02:04;99472.22;;;14.85;84.14
74960;BME280;63518;49.572;1.106;2023-05-07T02:04:31;99474.88;;;14.90;83.97
74960;BME280;63518;49.572;1.106;2023-05-07T02:06:58;99478.59;;;14.54;86.13
74960;BME280;63518;49.572;1.106;2023-05-07T02:09:25;99478.81;;;14.66;87.53
74960;BME280;63518;49.572;1.106;2023-05-07T02:11:51;99475.13;;;14.49;86.49
74960;BME280;63518;49.572;1.106;2023-05-07T02:14:18;99464.44;;;14.20;88.81
74960;BME280;63518;49.572;1.106;2023-05-07T02:16:46;99463.22;;;14.48;87.59
74960;BME280;63518;49.572;1.106;2023-05-07T02:19:13;99464.41;;;14.56;86.21
74960;BME280;63518;49.572;1.106;2023-05-07T02:21:40;99467.28;;;14.73;87.49
74960;BME280;63518;49.572;1.106;2023-05-07T02:24:07;99464.72;;;15.16;82.42
74960;BME280;63518;49.572;1.106;2023-05-07T02:26:34;99476.09;;;15.29;80.77
74960;BME280;63518;49.572;1.106;2023-05-07T02:29:00;99481.06;;;15.09;83.32
74960;BME280;63518;49.572;1.106;2023-05-07T02:31:27;99474.09;;;15.20;80.01
74960;BME280;63518;49.572;1.106;2023-05-07T02:33:54;99468.25;;;15.00;83.60
74960;BME280;63518;49.572;1.106;2023-05-07T02:36:21;99476.44;;;15.05;83.95
74960;BME280;63518;49.572;1.106;2023-05-07T02:38:47;99473.16;;;15.03;83.72
74960;BME280;63518;49.572;1.106;2023-05-07T02:41:14;99471.38;;;15.07;81.36
74960;BME280;63518;49.572;1.106;2023-05-07T02:43:41;99474.47;;;15.05;81.96
74960;BME280;63518;49.572;1.106;2023-05-07T02:46:08;99478.06;;;15.06;80.14
74960;BME280;63518;49.572;1.106;2023-05-07T02:48:35;99481.38;;;15.16;79.82
74960;BME280;63518;49.572;1.106;2023-05-07T02:51:03;99484.47;;;14.84;78.34
74960;BME280;63518;49.572;1.106;2023-05-07T02:53:30;99483.03;;;15.17;80.21
74960;BME280;63518;49.572;1.106;2023-05-07T02:55:57;99487.88;;;15.03;82.99
74960;BME280;63518;49.572;1.106;2023-05-07T02:58:25;99485.72;;;14.47;88.12
74960;BME280;63518;49.572;1.106;2023-05-07T03:00:52;99484.00;;;14.01;89.19
74960;BME280;63518;49.572;1.106;2023-05-07T03:03:21;99484.34;;;14.22;89.53
74960;BME280;63518;49.572;1.106;2023-05-07T03:05:47;99489.91;;;14.22;89.77
74960;BME280;63518;49.572;1.106;2023-05-07T03:08:14;99481.00;;;14.47;88.14
74960;BME280;63518;49.572;1.106;2023-05-07T03:10:41;99482.34;;;14.36;89.74
74960;BME280;63518;49.572;1.106;2023-05-07T03:13:08;99483.88;;;14.64;86.81
74960;BME280;63518;49.572;1.106;2023-05-07T03:15:34;99482.56;;;14.93;82.90
74960;BME280;63518;49.572;1.106;2023-05-07T03:18:01;99476.00;;;14.35;86.84
74960;BME280;63518;49.572;1.106;2023-05-07T03:20:28;99494.41;;;14.54;86.70
74960;BME280;63518;49.572;1.106;2023-05-07T03:22:56;99486.75;;;14.82;82.67
74960;BME280;63518;49.572;1.106;2023-05-07T03:25:23;99478.94;;;14.84;79.28
74960;BME280;63518;49.572;1.106;2023-05-07T03:27:50;99483.88;;;14.87;80.43
74960;BME280;63518;49.572;1.106;2023-05-07T03:30:17;99487.06;;;15.03;79.69
74960;BME280;63518;49.572;1.106;2023-05-07T03:32:43;99488.97;;;14.93;79.33
74960;BME280;63518;49.572;1.106;2023-05-07T03:35:10;99485.00;;;14.86;77.78
74960;BME280;63518;49.572;1.106;2023-05-07T03:37:37;99482.06;;;14.91;78.79
74960;BME280;63518;49.572;1.106;2023-05-07T03:40:05;99474.53;;;15.14;78.52
74960;BME280;63518;49.572;1.106;2023-05-07T03:42:32;99494.22;;;15.26;80.74
74960;BME280;63518;49.572;1.106;2023-05-07T03:44:59;99487.50;;;14.96;78.26
74960;BME280;63518;49.572;1.106;2023-05-07T03:47:26;99489.91;;;14.89;78.86
74960;BME280;63518;49.572;1.106;2023-05-07T03:49:53;99484.81;;;14.82;78.07
74960;BME280;63518;49.572;1.106;2023-05-07T03:52:21;99488.03;;;15.07;77.81
74960;BME280;63518;49.572;1.106;2023-05-07T03:54:52;99492.28;;;15.04;77.13
74960;BME280;63518;49.572;1.106;2023-05-07T03:57:20;99494.50;;;14.93;77.75
74960;BME280;63518;49.572;1.106;2023-05-07T03:59:46;99491.22;;;14.91;77.63
74960;BME280;63518;49.572;1.106;2023-05-07T04:02:13;99491.59;;;14.98;78.66
74960;BME280;63518;49.572;1.106;2023-05-07T04:04:40;99499.97;;;15.07;77.88
74960;BME280;63518;49.572;1.106;2023-05-07T04:07:07;99492.44;;;15.08;76.79
74960;BME280;63518;49.572;1.106;2023-05-07T04:09:34;99482.66;;;14.79;77.76
74960;BME280;63518;49.572;1.106;2023-05-07T04:12:00;99487.84;;;14.72;78.76
74960;BME280;63518;49.572;1.106;2023-05-07T04:14:27;99487.91;;;14.58;80.14
74960;BME280;63518;49.572;1.106;2023-05-07T04:16:54;99491.56;;;14.67;79.73
74960;BME280;63518;49.572;1.106;2023-05-07T04:19:21;99496.66;;;14.74;79.05
74960;BME280;63518;49.572;1.106;2023-05-07T04:21:48;99492.25;;;14.73;79.42
74960;BME280;63518;49.572;1.106;2023-05-07T04:24:14;99496.41;;;14.84;79.56
74960;BME280;63518;49.572;1.106;2023-05-07T04:26:41;99490.97;;;15.02;77.85
74960;BME280;63518;49.572;1.106;2023-05-07T04:29:08;99479.56;;;14.81;78.33
74960;BME280;63518;49.572;1.106;2023-05-07T04:31:35;99489.53;;;14.82;78.03
74960;BME280;63518;49.572;1.106;2023-05-07T04:34:02;99501.13;;;14.84;77.65
74960;BME280;63518;49.572;1.106;2023-05-07T04:36:28;99489.03;;;14.80;77.81
74960;BME280;63518;49.572;1.106;2023-05-07T04:38:55;99496.31;;;14.98;78.19
74960;BME280;63518;49.572;1.106;2023-05-07T04:41:22;99490.22;;;15.18;77.68
74960;BME280;63518;49.572;1.106;2023-05-07T04:43:49;99490.75;;;14.08;85.65
74960;BME280;63518;49.572;1.106;2023-05-07T04:46:16;99500.31;;;13.89;90.04
74960;BME280;63518;49.572;1.106;2023-05-07T04:48:42;99512.94;;;13.95;88.90
74960;BME280;63518;49.572;1.106;2023-05-07T04:51:09;99500.38;;;14.25;86.02
74960;BME280;63518;49.572;1.106;2023-05-07T04:53:37;99514.56;;;14.09;87.24
74960;BME280;63518;49.572;1.106;2023-05-07T04:56:04;99517.19;;;14.28;88.59
74960;BME280;63518;49.572;1.106;2023-05-07T04:58:30;99509.53;;;14.70;84.77
74960;BME280;63518;49.572;1.106;2023-05-07T05:00:58;99513.22;;;15.10;83.49
74960;BME280;63518;49.572;1.106;2023-05-07T05:03:25;99511.59;;;15.09;80.35
74960;BME280;63518;49.572;1.106;2023-05-07T05:05:52;99507.03;;;14.91;82.98
74960;BME280;63518;49.572;1.106;2023-05-07T05:08:19;99522.38;;;15.11;83.71
74960;BME280;63518;49.572;1.106;2023-05-07T05:10:46;99505.38;;;15.12;83.39
74960;BME280;63518;49.572;1.106;2023-05-07T05:13:15;99520.03;;;15.27;83.29
74960;BME280;63518;49.572;1.106;2023-05-07T05:15:42;99518.06;;;15.05;78.58
74960;BME280;63518;49.572;1.106;2023-05-07T05:18:09;99524.31;;;15.33;78.19
74960;BME280;63518;49.572;1.106;2023-05-07T05:20:35;99531.06;;;15.18;77.03
74960;BME280;63518;49.572;1.106;2023-05-07T05:23:02;99531.00;;;15.09;77.65
74960;BME280;63518;49.572;1.106;2023-05-07T05:25:29;99537.56;;;15.13;76.49
74960;BME280;63518;49.572;1.106;2023-05-07T05:27:55;99531.28;;;15.30;76.78
74960;BME280;63518;49.572;1.106;2023-05-07T05:30:23;99532.75;;;15.59;77.06
74960;BME280;63518;49.572;1.106;2023-05-07T05:32:49;99529.47;;;15.57;76.45
74960;BME280;63518;49.572;1.106;2023-05-07T05:35:16;99539.56;;;15.52;77.18
74960;BME280;63518;49.572;1.106;2023-05-07T05:37:43;99540.88;;;15.55;75.84
74960;BME280;63518;49.572;1.106;2023-05-07T05:40:10;99542.72;;;15.60;77.59
74960;BME280;63518;49.572;1.106;2023-05-07T05:42:37;99539.63;;;15.70;76.20
74960;BME280;63518;49.572;1.106;2023-05-07T05:45:05;99533.56;;;15.59;76.94
74960;BME280;63518;49.572;1.106;2023-05-07T05:47:32;99539.13;;;15.59;77.28
74960;BME280;63518;49.572;1.106;2023-05-07T05:49:58;99545.25;;;15.87;76.89
74960;BME280;63518;49.572;1.106;2023-05-07T05:52:25;99548.38;;;15.94;76.12
74960;BME280;63518;49.572;1.106;2023-05-07T05:54:53;99532.13;;;16.27;75.03
74960;BME280;63518;49.572;1.106;2023-05-07T05:57:20;99545.38;;;15.73;80.54
74960;BME280;63518;49.572;1.106;2023-05-07T05:59:47;99546.66;;;14.83;85.83
74960;BME280;63518;49.572;1.106;2023-05-07T06:02:13;99543.91;;;15.14;85.06
74960;BME280;63518;49.572;1.106;2023-05-07T06:04:41;99552.06;;;15.33;78.14
74960;BME280;63518;49.572;1.106;2023-05-07T06:07:09;99553.84;;;15.06;79.40
74960;BME280;63518;49.572;1.106;2023-05-07T06:09:36;99562.97;;;15.07;80.38
74960;BME280;63518;49.572;1.106;2023-05-07T06:12:03;99562.66;;;15.08;81.06
74960;BME280;63518;49.572;1.106;2023-05-07T06:14:29;99569.22;;;15.12;80.76
74960;BME280;63518;49.572;1.106;2023-05-07T06:16:57;99570.56;;;14.92;83.25
74960;BME280;63518;49.572;1.106;2023-05-07T06:19:24;99576.28;;;15.18;81.80
74960;BME280;63518;49.572;1.106;2023-05-07T06:21:52;99574.03;;;14.98;81.28
74960;BME280;63518;49.572;1.106;2023-05-07T06:24:19;99580.72;;;14.97;83.07
74960;BME280;63518;49.572;1.106;2023-05-07T06:26:46;99567.09;;;15.09;82.12
74960;BME280;63518;49.572;1.106;2023-05-07T06:29:13;99567.03;;;15.23;81.27
74960;BME280;63518;49.572;1.106;2023-05-07T06:31:40;99575.81;;;15.47;80.88
74960;BME280;63518;49.572;1.106;2023-05-07T06:34:07;99565.72;;;15.20;80.63
74960;BME280;63518;49.572;1.106;2023-05-07T06:36:34;99580.75;;;15.50;80.63
74960;BME280;63518;49.572;1.106;2023-05-07T06:39:01;99587.47;;;15.58;79.98
74960;BME280;63518;49.572;1.106;2023-05-07T06:41:28;99597.00;;;15.66;79.97
74960;BME280;63518;49.572;1.106;2023-05-07T06:43:55;99593.75;;;15.72;80.34
74960;BME280;63518;49.572;1.106;2023-05-07T06:46:22;99605.69;;;15.73;79.33
74960;BME280;63518;49.572;1.106;2023-05-07T06:48:48;99592.66;;;16.30;78.24
74960;BME280;63518;49.572;1.106;2023-05-07T06:51:15;99604.66;;;16.00;78.86
74960;BME280;63518;49.572;1.106;2023-05-07T06:53:42;99605.63;;;16.52;77.78
74960;BME280;63518;49.572;1.106;2023-05-07T06:56:09;99597.69;;;16.20;79.22
74960;BME280;63518;49.572;1.106;2023-05-07T06:58:37;99595.69;;;16.12;78.57
74960;BME280;63518;49.572;1.106;2023-05-07T07:01:03;99606.91;;;16.38;76.18
74960;BME280;63518;49.572;1.106;2023-05-07T07:03:30;99605.84;;;16.16;78.04
74960;BME280;63518;49.572;1.106;2023-05-07T07:05:57;99596.97;;;16.05;78.67
74960;BME280;63518;49.572;1.106;2023-05-07T07:08:24;99604.00;;;16.03;79.55
74960;BME280;63518;49.572;1.106;2023-05-07T07:10:51;99606.66;;;15.37;81.80
74960;BME280;63518;49.572;1.106;2023-05-07T07:13:18;99613.63;;;15.26;85.12
74960;BME280;63518;49.572;1.106;2023-05-07T07:15:45;99616.75;;;14.88;86.41
74960;BME280;63518;49.572;1.106;2023-05-07T07:18:12;99613.75;;;15.07;85.25
74960;BME280;63518;49.572;1.106;2023-05-07T07:20:39;99622.50;;;15.68;84.41
74960;BME280;63518;49.572;1.106;2023-05-07T07:23:06;99620.63;;;15.94;79.42
74960;BME280;63518;49.572;1.106;2023-05-07T07:25:33;99628.94;;;16.25;79.80
74960;BME280;63518;49.572;1.106;2023-05-07T07:28:00;99625.31;;;15.76;81.89
74960;BME280;63518;49.572;1.106;2023-05-07T07:30:27;99622.63;;;15.63;80.34
74960;BME280;63518;49.572;1.106;2023-05-07T07:32:54;99637.84;;;15.96;79.04
74960;BME280;63518;49.572;1.106;2023-05-07T07:35:22;99622.75;;;15.49;81.49
74960;BME280;63518;49.572;1.106;2023-05-07T07:37:51;99629.13;;;15.49;81.49
74960;BME280;63518;49.572;1.106;2023-05-07T07:40:26;99630.38;;;15.43;82.44
74960;BME280;63518;49.572;1.106;2023-05-07T07:42:54;99637.91;;;15.43;83.05
74960;BME280;63518;49.572;1.106;2023-05-07T07:45:22;99634.56;;;14.74;86.56
74960;BME280;63518;49.572;1.106;2023-05-07T07:47:56;99640.28;;;15.13;84.60
74960;BME280;63518;49.572;1.106;2023-05-07T07:50:23;99635.47;;;14.33;88.66
74960;BME280;63518;49.572;1.106;2023-05-07T07:53:10;99645.75;;;14.46;88.68
74960;BME280;63518;49.572;1.106;2023-05-07T07:55:40;99645.84;;;15.36;86.12
74960;BME280;63518;49.572;1.106;2023-05-07T07:58:07;99650.22;;;15.14;86.08
74960;BME280;63518;49.572;1.106;2023-05-07T08:00:34;99634.75;;;14.77;86.44
74960;BME280;63518;49.572;1.106;2023-05-07T08:03:09;99645.34;;;14.39;87.79
74960;BME280;63518;49.572;1.106;2023-05-07T08:05:37;99656.03;;;14.68;89.92
74960;BME280;63518;49.572;1.106;2023-05-07T08:08:05;99659.03;;;14.72;88.78
74960;BME280;63518;49.572;1.106;2023-05-07T08:10:42;99653.50;;;14.58;88.59
74960;BME280;63518;49.572;1.106;2023-05-07T08:13:10;99660.03;;;15.12;86.43
74960;BME280;63518;49.572;1.106;2023-05-07T08:15:44;99649.25;;;14.24;90.39
74960;BME280;63518;49.572;1.106;2023-05-07T08:18:11;99659.56;;;14.96;87.70
74960;BME280;63518;49.572;1.106;2023-05-07T08:20:38;99675.84;;;14.89;86.04
74960;BME280;63518;49.572;1.106;2023-05-07T08:23:06;99680.91;;;14.73;87.07
74960;BME280;63518;49.572;1.106;2023-05-07T08:25:34;99679.28;;;14.58;87.94
74960;BME280;63518;49.572;1.106;2023-05-07T08:28:01;99672.41;;;14.56;89.77
74960;BME280;63518;49.572;1.106;2023-05-07T08:30:28;99676.56;;;14.81;87.72
74960;BME280;63518;49.572;1.106;2023-05-07T08:32:55;99682.78;;;15.00;86.54
74960;BME280;63518;49.572;1.106;2023-05-07T08:35:21;99684.91;;;15.39;86.33
74960;BME280;63518;49.572;1.106;2023-05-07T08:37:48;99668.00;;;14.91;85.67
74960;BME280;63518;49.572;1.106;2023-05-07T08:40:15;99677.13;;;15.05;85.45
74960;BME280;63518;49.572;1.106;2023-05-07T08:42:43;99683.09;;;14.62;88.26
74960;BME280;63518;49.572;1.106;2023-05-07T08:45:11;99691.13;;;14.50;89.70
74960;BME280;63518;49.572;1.106;2023-05-07T08:47:43;99683.22;;;14.30;90.27
74960;BME280;63518;49.572;1.106;2023-05-07T08:50:13;99661.50;;;13.63;90.21
74960;BME280;63518;49.572;1.106;2023-05-07T08:52:40;99689.16;;;13.49;93.13
74960;BME280;63518;49.572;1.106;2023-05-07T08:55:08;99695.78;;;13.81;92.20
74960;BME280;63518;49.572;1.106;2023-05-07T08:57:36;99707.06;;;13.71;92.67
74960;BME280;63518;49.572;1.106;2023-05-07T09:00:06;99707.25;;;13.61;93.00
74960;BME280;63518;49.572;1.106;2023-05-07T09:02:37;99703.03;;;13.63;93.07
74960;BME280;63518;49.572;1.106;2023-05-07T09:05:03;99711.59;;;13.67;93.26
74960;BME280;63518;49.572;1.106;2023-05-07T09:07:30;99698.53;;;13.35;94.50
74960;BME280;63518;49.572;1.106;2023-05-07T09:09:57;99694.59;;;13.22;95.48
74960;BME280;63518;49.572;1.106;2023-05-07T09:12:24;99704.63;;;13.18;94.76
74960;BME280;63518;49.572;1.106;2023-05-07T09:14:51;99716.06;;;13.11;95.75
74960;BME280;63518;49.572;1.106;2023-05-07T09:17:18;99706.81;;;13.02;96.23
74960;BME280;63518;49.572;1.106;2023-05-07T09:19:45;99719.06;;;13.15;96.59
74960;BME280;63518;49.572;1.106;2023-05-07T09:22:13;99717.56;;;13.22;96.41
74960;BME280;63518;49.572;1.106;2023-05-07T09:24:40;99721.59;;;13.63;93.79
74960;BME280;63518;49.572;1.106;2023-05-07T09:27:07;99723.94;;;13.55;93.96
74960;BME280;63518;49.572;1.106;2023-05-07T09:29:36;99724.63;;;13.47;94.02
74960;BME280;63518;49.572;1.106;2023-05-07T09:32:04;99717.88;;;13.53;94.07
74960;BME280;63518;49.572;1.106;2023-05-07T09:34:32;99717.78;;;13.91;94.07
74960;BME280;63518;49.572;1.106;2023-05-07T09:37:01;99713.34;;;13.76;93.53
74960;BME280;63518;49.572;1.106;2023-05-07T09:39:45;99719.59;;;13.82;93.85
74960;BME280;63518;49.572;1.106;2023-05-07T09:42:13;99715.59;;;13.88;92.88
74960;BME280;63518;49.572;1.106;2023-05-07T09:44:43;99721.22;;;14.16;93.19
74960;BME280;63518;49.572;1.106;2023-05-07T09:47:10;99734.22;;;14.01;93.13
74960;BME280;63518;49.572;1.106;2023-05-07T09:49:39;99719.38;;;13.78;93.14
74960;BME280;63518;49.572;1.106;2023-05-07T09:52:09;99727.28;;;14.31;91.52
74960;BME280;63518;49.572;1.106;2023-05-07T09:54:37;99728.50;;;14.11;91.96
74960;BME280;63518;49.572;1.106;2023-05-07T09:57:05;99724.63;;;14.54;91.73
74960;BME280;63518;49.572;1.106;2023-05-07T09:59:34;99725.44;;;14.27;91.92
74960;BME280;63518;49.572;1.106;2023-05-07T10:02:03;99737.66;;;14.26;92.16
74960;BME280;63518;49.572;1.106;2023-05-07T10:04:31;99736.44;;;14.32;90.68
74960;BME280;63518;49.572;1.106;2023-05-07T10:06:59;99743.34;;;14.02;92.05
74960;BME280;63518;49.572;1.106;2023-05-07T10:09:26;99747.59;;;14.13;92.66
74960;BME280;63518;49.572;1.106;2023-05-07T10:11:54;99745.44;;;14.51;91.76
74960;BME280;63518;49.572;1.106;2023-05-07T10:14:21;99755.63;;;14.15;91.78
74960;BME280;63518;49.572;1.106;2023-05-07T10:16:48;99766.59;;;13.87;92.92
74960;BME280;63518;49.572;1.106;2023-05-07T10:19:16;99763.66;;;13.65;92.91
74960;BME280;63518;49.572;1.106;2023-05-07T10:21:50;99766.28;;;14.21;92.65
74960;BME280;63518;49.572;1.106;2023-05-07T10:24:31;99768.41;;;14.10;93.73
74960;BME280;63518;49.572;1.106;2023-05-07T10:27:00;99776.91;;;14.47;92.42
74960;BME280;63518;49.572;1.106;2023-05-07T10:30:15;99777.47;;;14.16;92.24
74960;BME280;63518;49.572;1.106;2023-05-07T10:32:51;99779.03;;;14.50;91.62
74960;BME280;63518;49.572;1.106;2023-05-07T10:35:26;99766.91;;;14.59;90.63
74960;BME280;63518;49.572;1.106;2023-05-07T10:37:53;99780.66;;;14.37;90.20
74960;BME280;63518;49.572;1.106;2023-05-07T10:40:20;99777.53;;;15.07;89.21
74960;BME280;63518;49.572;1.106;2023-05-07T10:43:04;99776.38;;;14.72;89.70
74960;BME280;63518;49.572;1.106;2023-05-07T10:45:35;99771.06;;;15.12;88.45
74960;BME280;63518;49.572;1.106;2023-05-07T10:48:16;99771.63;;;14.45;89.60
74960;BME280;63518;49.572;1.106;2023-05-07T10:51:22;99776.72;;;15.07;88.10
74960;BME280;63518;49.572;1.106;2023-05-07T10:56:42;99774.97;;;15.24;88.98
74960;BME280;63518;49.572;1.106;2023-05-07T11:04:23;99791.63;;;15.11;89.87
74960;BME280;63518;49.572;1.106;2023-05-07T11:15:15;99792.88;;;14.91;87.62
74960;BME280;63518;49.572;1.106;2023-05-07T11:17:58;99804.34;;;14.62;89.73
74960;BME280;63518;49.572;1.106;2023-05-07T11:26:07;99815.22;;;14.58;90.60
74960;BME280;63518;49.572;1.106;2023-05-07T11:28:42;99802.22;;;15.09;88.89
74960;BME280;63518;49.572;1.106;2023-05-07T11:31:10;99806.78;;;14.63;89.10
74960;BME280;63518;49.572;1.106;2023-05-07T11:33:38;99806.94;;;15.08;89.23
74960;BME280;63518;49.572;1.106;2023-05-07T11:36:05;99804.03;;;15.41;88.08
74960;BME280;63518;49.572;1.106;2023-05-07T11:38:35;99805.50;;;16.05;85.40
74960;BME280;63518;49.572;1.106;2023-05-07T11:41:02;99810.63;;;16.12;85.17
74960;BME280;63518;49.572;1.106;2023-05-07T11:43:32;99808.06;;;15.35;85.43
74960;BME280;63518;49.572;1.106;2023-05-07T11:46:08;99807.56;;;15.05;84.52
74960;BME280;63518;49.572;1.106;2023-05-07T11:48:36;99812.75;;;15.70;85.25
74960;BME280;63518;49.572;1.106;2023-05-07T11:51:07;99810.47;;;16.17;81.84
74960;BME280;63518;49.572;1.106;2023-05-07T11:53:42;99825.59;;;16.02;82.33
74960;BME280;63518;49.572;1.106;2023-05-07T11:56:10;99802.25;;;15.81;83.68
74960;BME280;63518;49.572;1.106;2023-05-07T11:58:38;99821.75;;;15.67;86.07
74960;BME280;63518;49.572;1.106;2023-05-07T12:01:10;99808.97;;;15.16;85.97
74960;BME280;63518;49.572;1.106;2023-05-07T12:03:44;99814.53;;;15.66;85.27
74960;BME280;63518;49.572;1.106;2023-05-07T12:06:14;99820.38;;;16.63;81.64
74960;BME280;63518;49.572;1.106;2023-05-07T12:08:42;99820.28;;;15.70;81.38
74960;BME280;63518;49.572;1.106;2023-05-07T12:11:22;99830.34;;;16.24;80.61
74960;BME280;63518;49.572;1.106;2023-05-07T12:13:49;99829.44;;;16.15;80.07
74960;BME280;63518;49.572;1.106;2023-05-07T12:16:20;99834.22;;;17.34;78.31
74960;BME280;63518;49.572;1.106;2023-05-07T12:18:50;99843.75;;;16.93;78.68
74960;BME280;63518;49.572;1.106;2023-05-07T12:21:19;99847.28;;;16.37;80.54
74960;BME280;63518;49.572;1.106;2023-05-07T12:23:50;99842.97;;;16.61;78.78
74960;BME280;63518;49.572;1.106;2023-05-07T12:26:19;99850.53;;;16.70;78.24
74960;BME280;63518;49.572;1.106;2023-05-07T12:28:57;99853.72;;;17.77;75.14
74960;BME280;63518;49.572;1.106;2023-05-07T12:31:27;99856.03;;;17.49;78.53
74960;BME280;63518;49.572;1.106;2023-05-07T12:33:57;99849.63;;;17.92;74.96
74960;BME280;63518;49.572;1.106;2023-05-07T12:36:40;99842.25;;;17.96;75.21
74960;BME280;63518;49.572;1.106;2023-05-07T12:39:16;99852.31;;;16.34;79.63
74960;BME280;63518;49.572;1.106;2023-05-07T12:41:58;99866.13;;;15.59;82.42
74960;BME280;63518;49.572;1.106;2023-05-07T12:44:37;99875.03;;;15.69;82.80
74960;BME280;63518;49.572;1.106;2023-05-07T12:47:04;99864.28;;;15.40;81.72
74960;BME280;63518;49.572;1.106;2023-05-07T12:49:41;99876.63;;;15.48;81.96
74960;BME280;63518;49.572;1.106;2023-05-07T12:52:08;99878.38;;;15.58;82.19
74960;BME280;63518;49.572;1.106;2023-05-07T12:54:49;99881.72;;;15.05;85.07
74960;BME280;63518;49.572;1.106;2023-05-07T12:57:19;99891.75;;;15.92;83.79
74960;BME280;63518;49.572;1.106;2023-05-07T12:59:57;99888.84;;;15.97;83.35
74960;BME280;63518;49.572;1.106;2023-05-07T13:02:37;99888.94;;;16.28;80.91
74960;BME280;63518;49.572;1.106;2023-05-07T13:05:05;99879.50;;;17.08;77.20
74960;BME280;63518;49.572;1.106;2023-05-07T13:07:32;99880.50;;;16.19;77.58
74960;BME280;63518;49.572;1.106;2023-05-07T13:09:59;99889.56;;;15.66;80.81
74960;BME280;63518;49.572;1.106;2023-05-07T13:12:26;99885.47;;;16.22;79.68
74960;BME280;63518;49.572;1.106;2023-05-07T13:14:53;99876.56;;;16.43;80.17
74960;BME280;63518;49.572;1.106;2023-05-07T13:17:19;99894.13;;;16.21;81.54
74960;BME280;63518;49.572;1.106;2023-05-07T13:19:46;99895.56;;;16.41;81.44
74960;BME280;63518;49.572;1.106;2023-05-07T13:22:13;99894.25;;;15.79;81.38
74960;BME280;63518;49.572;1.106;2023-05-07T13:24:40;99895.53;;;17.51;78.27
74960;BME280;63518;49.572;1.106;2023-05-07T13:27:08;99867.63;;;16.23;78.80
74960;BME280;63518;49.572;1.106;2023-05-07T13:29:35;99890.50;;;17.62;77.24
74960;BME280;63518;49.572;1.106;2023-05-07T13:32:02;99896.25;;;16.77;79.02